sensor_id;sensor_type;location;lat;lon;timestamp;P1;durP1;ratioP1;P2;durP2;ratioP2
9974;SDS011;5028;50.974;4.968;2023-01-28T00:00:05;7.37;;;6.77;;
9974;SDS011;5028;50.974;4.968;2023-01-28T00:02:41;7.20;;;6.60;;
9974;SDS011;5028;50.974;4.968;2023-01-28T00:05:16;8.07;;;7.37;;
9974;SDS011;5028;50.974;4.968;2023-01-28T00:07:53;8.93;;;8.10;;
9974;SDS011;5028;50.974;4.968;2023-01-28T00:10:22;9.93;;;8.93;;
9974;SDS011;5028;50.974;4.968;2023-01-28T00:12:57;8.47;;;7.77;;
9974;SDS011;5028;50.974;4.968;2023-01-28T00:15:25;8.40;;;7.70;;
9974;SDS011;5028;50.974;4.968;2023-01-28T00:18:01;8.03;;;7.33;;
9974;SDS011;5028;50.974;4.968;2023-01-28T00:20:29;8.40;;;7.60;;
9974;SDS011;5028;50.974;4.968;2023-01-28T00:23:06;8.90;;;8.10;;
9974;SDS011;5028;50.974;4.968;2023-01-28T00:25:34;9.77;;;8.77;;
9974;SDS011;5028;50.974;4.968;2023-01-28T00:28:09;10.57;;;9.57;;
9974;SDS011;5028;50.974;4.968;2023-01-28T00:30:38;10.13;;;9.23;;
9974;SDS011;5028;50.974;4.968;2023-01-28T00:33:13;10.67;;;9.67;;
9974;SDS011;5028;50.974;4.968;2023-01-28T00:35:42;11.47;;;10.37;;
9974;SDS011;5028;50.974;4.968;2023-01-28T00:38:18;11.73;;;10.63;;
9974;SDS011;5028;50.974;4.968;2023-01-28T00:40:46;12.57;;;11.37;;
9974;SDS011;5028;50.974;4.968;2023-01-28T00:43:22;12.13;;;11.03;;
9974;SDS011;5028;50.974;4.968;2023-01-28T00:45:50;13.47;;;12.27;;
9974;SDS011;5028;50.974;4.968;2023-01-28T00:48:26;15.00;;;13.50;;
9974;SDS011;5028;50.974;4.968;2023-01-28T00:50:54;14.30;;;12.90;;
9974;SDS011;5028;50.974;4.968;2023-01-28T00:53:31;12.37;;;11.13;;
9974;SDS011;5028;50.974;4.968;2023-01-28T00:56:02;10.97;;;9.97;;
9974;SDS011;5028;50.974;4.968;2023-01-28T00:58:38;11.57;;;10.47;;
9974;SDS011;5028;50.974;4.968;2023-01-28T01:01:08;11.20;;;10.17;;
9974;SDS011;5028;50.974;4.968;2023-01-28T01:03:50;10.73;;;9.80;;
9974;SDS011;5028;50.974;4.968;2023-01-28T01:06:23;12.20;;;11.00;;
9974;SDS011;5028;50.974;4.968;2023-01-28T01:09:00;13.43;;;12.03;;
9974;SDS011;5028;50.974;4.968;2023-01-28T01:11:32;14.13;;;12.73;;
9974;SDS011;5028;50.974;4.968;2023-01-28T01:14:08;13.17;;;11.97;;
9974;SDS011;5028;50.974;4.968;2023-01-28T01:16:37;14.10;;;12.80;;
9974;SDS011;5028;50.974;4.968;2023-01-28T01:19:13;13.73;;;12.40;;
9974;SDS011;5028;50.974;4.968;2023-01-28T01:21:42;13.27;;;12.03;;
9974;SDS011;5028;50.974;4.968;2023-01-28T01:24:23;13.93;;;12.63;;
9974;SDS011;5028;50.974;4.968;2023-01-28T01:26:55;14.27;;;12.87;;
9974;SDS011;5028;50.974;4.968;2023-01-28T01:29:29;11.20;;;10.10;;
9974;SDS011;5028;50.974;4.968;2023-01-28T01:31:59;11.23;;;10.07;;
9974;SDS011;5028;50.974;4.968;2023-01-28T01:34:34;10.67;;;9.67;;
9974;SDS011;5028;50.974;4.968;2023-01-28T01:37:02;10.90;;;9.90;;
9974;SDS011;5028;50.974;4.968;2023-01-28T01:39:41;10.93;;;9.93;;
9974;SDS011;5028;50.974;4.968;2023-01-28T01:42:10;10.83;;;9.83;;
9974;SDS011;5028;50.974;4.968;2023-01-28T01:44:54;11.30;;;10.20;;
9974;SDS011;5028;50.974;4.968;2023-01-28T01:47:26;10.27;;;9.27;;
9974;SDS011;5028;50.974;4.968;2023-01-28T01:50:06;9.70;;;8.80;;
9974;SDS011;5028;50.974;4.968;2023-01-28T01:52:40;9.63;;;8.50;;
9974;SDS011;5028;50.974;4.968;2023-01-28T01:55:18;10.40;;;9.43;;
9974;SDS011;5028;50.974;4.968;2023-01-28T01:57:50;10.27;;;9.27;;
9974;SDS011;5028;50.974;4.968;2023-01-28T02:00:27;10.13;;;9.23;;
9974;SDS011;5028;50.974;4.968;2023-01-28T02:03:08;10.10;;;9.20;;
9974;SDS011;5028;50.974;4.968;2023-01-28T02:05:44;9.17;;;8.33;;
9974;SDS011;5028;50.974;4.968;2023-01-28T02:08:13;9.20;;;8.30;;
9974;SDS011;5028;50.974;4.968;2023-01-28T02:11:05;10.27;;;9.27;;
9974;SDS011;5028;50.974;4.968;2023-01-28T02:13:37;10.60;;;9.60;;
9974;SDS011;5028;50.974;4.968;2023-01-28T02:16:15;11.60;;;10.50;;
9974;SDS011;5028;50.974;4.968;2023-01-28T02:18:44;11.40;;;10.30;;
9974;SDS011;5028;50.974;4.968;2023-01-28T02:24:31;10.27;;;9.27;;
9974;SDS011;5028;50.974;4.968;2023-01-28T02:30:24;9.20;;;8.30;;
9974;SDS011;5028;50.974;4.968;2023-01-28T02:32:59;10.63;;;9.50;;
9974;SDS011;5028;50.974;4.968;2023-01-28T02:35:40;6.43;;;5.83;;
9974;SDS011;5028;50.974;4.968;2023-01-28T02:38:21;10.60;;;9.60;;
9974;SDS011;5028;50.974;4.968;2023-01-28T02:40:56;10.63;;;9.63;;
9974;SDS011;5028;50.974;4.968;2023-01-28T02:43:41;11.87;;;10.77;;
9974;SDS011;5028;50.974;4.968;2023-01-28T02:46:12;10.57;;;9.57;;
9974;SDS011;5028;50.974;4.968;2023-01-28T02:49:10;10.97;;;9.93;;
9974;SDS011;5028;50.974;4.968;2023-01-28T02:51:52;11.70;;;10.60;;
9974;SDS011;5028;50.974;4.968;2023-01-28T02:54:32;13.17;;;11.97;;
9974;SDS011;5028;50.974;4.968;2023-01-28T02:57:15;12.87;;;11.67;;
9974;SDS011;5028;50.974;4.968;2023-01-28T02:59:57;11.17;;;10.17;;
9974;SDS011;5028;50.974;4.968;2023-01-28T03:02:41;12.23;;;11.03;;
9974;SDS011;5028;50.974;4.968;2023-01-28T03:05:24;11.77;;;10.67;;
9974;SDS011;5028;50.974;4.968;2023-01-28T03:08:02;11.60;;;10.50;;
9974;SDS011;5028;50.974;4.968;2023-01-28T03:10:52;11.20;;;10.20;;
9974;SDS011;5028;50.974;4.968;2023-01-28T03:13:47;11.33;;;10.33;;
9974;SDS011;5028;50.974;4.968;2023-01-28T03:16:34;11.30;;;10.30;;
9974;SDS011;5028;50.974;4.968;2023-01-28T03:19:27;12.27;;;11.07;;
9974;SDS011;5028;50.974;4.968;2023-01-28T03:22:12;11.90;;;10.80;;
9974;SDS011;5028;50.974;4.968;2023-01-28T03:25:05;12.27;;;11.07;;
9974;SDS011;5028;50.974;4.968;2023-01-28T03:27:53;13.43;;;12.13;;
9974;SDS011;5028;50.974;4.968;2023-01-28T03:30:52;13.50;;;12.23;;
9974;SDS011;5028;50.974;4.968;2023-01-28T03:33:49;12.27;;;11.03;;
9974;SDS011;5028;50.974;4.968;2023-01-28T03:36:42;12.53;;;11.33;;
9974;SDS011;5028;50.974;4.968;2023-01-28T03:39:15;12.80;;;11.60;;
9974;SDS011;5028;50.974;4.968;2023-01-28T03:41:58;12.00;;;10.90;;
9974;SDS011;5028;50.974;4.968;2023-01-28T03:44:28;11.60;;;10.50;;
9974;SDS011;5028;50.974;4.968;2023-01-28T03:47:21;10.73;;;9.73;;
9974;SDS011;5028;50.974;4.968;2023-01-28T03:49:53;11.07;;;10.07;;
9974;SDS011;5028;50.974;4.968;2023-01-28T03:52:29;11.47;;;10.37;;
9974;SDS011;5028;50.974;4.968;2023-01-28T03:54:59;13.13;;;11.80;;
9974;SDS011;5028;50.974;4.968;2023-01-28T03:57:45;13.70;;;12.30;;
9974;SDS011;5028;50.974;4.968;2023-01-28T04:00:14;14.83;;;13.33;;
9974;SDS011;5028;50.974;4.968;2023-01-28T04:02:56;13.90;;;12.50;;
9974;SDS011;5028;50.974;4.968;2023-01-28T04:05:28;14.50;;;13.10;;
9974;SDS011;5028;50.974;4.968;2023-01-28T04:08:03;14.43;;;13.03;;
9974;SDS011;5028;50.974;4.968;2023-01-28T04:10:33;13.60;;;12.30;;
9974;SDS011;5028;50.974;4.968;2023-01-28T04:13:08;16.37;;;14.70;;
9974;SDS011;5028;50.974;4.968;2023-01-28T04:15:38;15.43;;;13.97;;
9974;SDS011;5028;50.974;4.968;2023-01-28T04:18:14;15.07;;;13.60;;
9974;SDS011;5028;50.974;4.968;2023-01-28T04:20:44;14.70;;;13.20;;
9974;SDS011;5028;50.974;4.968;2023-01-28T04:23:23;13.73;;;12.33;;
9974;SDS011;5028;50.974;4.968;2023-01-28T04:25:51;15.07;;;13.60;;
9974;SDS011;5028;50.974;4.968;2023-01-28T04:28:27;13.27;;;11.87;;
9974;SDS011;5028;50.974;4.968;2023-01-28T04:30:55;14.67;;;13.17;;
9974;SDS011;5028;50.974;4.968;2023-01-28T04:33:31;14.13;;;12.73;;
9974;SDS011;5028;50.974;4.968;2023-01-28T04:36:01;14.47;;;13.07;;
9974;SDS011;5028;50.974;4.968;2023-01-28T04:38:36;14.23;;;12.83;;
9974;SDS011;5028;50.974;4.968;2023-01-28T04:41:04;14.70;;;13.30;;
9974;SDS011;5028;50.974;4.968;2023-01-28T04:43:40;14.30;;;12.90;;
9974;SDS011;5028;50.974;4.968;2023-01-28T04:46:11;13.30;;;12.00;;
9974;SDS011;5028;50.974;4.968;2023-01-28T04:48:46;13.20;;;11.90;;
9974;SDS011;5028;50.974;4.968;2023-01-28T04:51:16;13.33;;;12.03;;
9974;SDS011;5028;50.974;4.968;2023-01-28T04:53:45;12.40;;;11.17;;
9974;SDS011;5028;50.974;4.968;2023-01-28T04:56:20;12.70;;;11.50;;
9974;SDS011;5028;50.974;4.968;2023-01-28T04:58:48;12.47;;;11.27;;
9974;SDS011;5028;50.974;4.968;2023-01-28T05:01:24;12.43;;;11.03;;
9974;SDS011;5028;50.974;4.968;2023-01-28T05:04:05;11.83;;;10.73;;
9974;SDS011;5028;50.974;4.968;2023-01-28T05:06:43;12.93;;;11.63;;
9974;SDS011;5028;50.974;4.968;2023-01-28T05:09:12;11.17;;;10.07;;
9974;SDS011;5028;50.974;4.968;2023-01-28T05:11:47;11.17;;;10.07;;
9974;SDS011;5028;50.974;4.968;2023-01-28T05:14:15;10.40;;;9.37;;
9974;SDS011;5028;50.974;4.968;2023-01-28T05:16:51;11.63;;;10.53;;
9974;SDS011;5028;50.974;4.968;2023-01-28T05:19:19;11.30;;;10.20;;
9974;SDS011;5028;50.974;4.968;2023-01-28T05:21:56;11.17;;;10.07;;
9974;SDS011;5028;50.974;4.968;2023-01-28T05:24:25;14.10;;;12.70;;
9974;SDS011;5028;50.974;4.968;2023-01-28T05:27:00;13.27;;;11.90;;
9974;SDS011;5028;50.974;4.968;2023-01-28T05:29:28;12.50;;;11.30;;
9974;SDS011;5028;50.974;4.968;2023-01-28T05:32:03;12.77;;;11.50;;
9974;SDS011;5028;50.974;4.968;2023-01-28T05:34:32;12.17;;;10.90;;
9974;SDS011;5028;50.974;4.968;2023-01-28T05:37:08;11.50;;;10.40;;
9974;SDS011;5028;50.974;4.968;2023-01-28T05:39:37;10.97;;;9.87;;
9974;SDS011;5028;50.974;4.968;2023-01-28T05:42:12;12.03;;;10.83;;
9974;SDS011;5028;50.974;4.968;2023-01-28T05:44:41;10.50;;;9.50;;
9974;SDS011;5028;50.974;4.968;2023-01-28T05:47:16;10.70;;;9.70;;
9974;SDS011;5028;50.974;4.968;2023-01-28T05:49:45;11.53;;;10.43;;
9974;SDS011;5028;50.974;4.968;2023-01-28T05:52:21;10.97;;;9.87;;
9974;SDS011;5028;50.974;4.968;2023-01-28T05:54:50;10.50;;;9.50;;
9974;SDS011;5028;50.974;4.968;2023-01-28T05:57:25;10.17;;;9.17;;
9974;SDS011;5028;50.974;4.968;2023-01-28T05:59:54;11.37;;;10.27;;
9974;SDS011;5028;50.974;4.968;2023-01-28T06:02:29;11.93;;;10.83;;
9974;SDS011;5028;50.974;4.968;2023-01-28T06:05:04;11.20;;;10.10;;
9974;SDS011;5028;50.974;4.968;2023-01-28T06:07:44;11.93;;;10.57;;
9974;SDS011;5028;50.974;4.968;2023-01-28T06:10:13;11.50;;;10.40;;
9974;SDS011;5028;50.974;4.968;2023-01-28T06:12:49;11.80;;;10.67;;
9974;SDS011;5028;50.974;4.968;2023-01-28T06:15:17;10.67;;;9.67;;
9974;SDS011;5028;50.974;4.968;2023-01-28T06:17:53;11.67;;;10.57;;
9974;SDS011;5028;50.974;4.968;2023-01-28T06:20:21;11.20;;;10.10;;
9974;SDS011;5028;50.974;4.968;2023-01-28T06:22:57;12.10;;;10.90;;
9974;SDS011;5028;50.974;4.968;2023-01-28T06:25:26;12.33;;;11.13;;
9974;SDS011;5028;50.974;4.968;2023-01-28T06:28:01;12.00;;;10.80;;
9974;SDS011;5028;50.974;4.968;2023-01-28T06:30:29;12.10;;;10.90;;
9974;SDS011;5028;50.974;4.968;2023-01-28T06:32:58;12.40;;;11.10;;
9974;SDS011;5028;50.974;4.968;2023-01-28T06:35:34;12.57;;;11.37;;
9974;SDS011;5028;50.974;4.968;2023-01-28T06:38:04;14.50;;;12.63;;
9974;SDS011;5028;50.974;4.968;2023-01-28T06:40:39;13.03;;;11.73;;
9974;SDS011;5028;50.974;4.968;2023-01-28T06:43:07;13.80;;;12.40;;
9974;SDS011;5028;50.974;4.968;2023-01-28T06:45:43;13.30;;;12.00;;
9974;SDS011;5028;50.974;4.968;2023-01-28T06:48:12;12.90;;;11.60;;
9974;SDS011;5028;50.974;4.968;2023-01-28T06:50:47;13.50;;;12.10;;
9974;SDS011;5028;50.974;4.968;2023-01-28T06:53:17;13.00;;;11.70;;
9974;SDS011;5028;50.974;4.968;2023-01-28T06:55:53;12.00;;;10.80;;
9974;SDS011;5028;50.974;4.968;2023-01-28T06:58:21;12.60;;;11.40;;
9974;SDS011;5028;50.974;4.968;2023-01-28T07:01:04;12.37;;;11.17;;
9974;SDS011;5028;50.974;4.968;2023-01-28T07:03:45;12.03;;;10.83;;
9974;SDS011;5028;50.974;4.968;2023-01-28T07:06:13;12.63;;;11.33;;
9974;SDS011;5028;50.974;4.968;2023-01-28T07:08:49;13.33;;;11.23;;
9974;SDS011;5028;50.974;4.968;2023-01-28T07:11:18;12.70;;;11.43;;
9974;SDS011;5028;50.974;4.968;2023-01-28T07:13:53;12.47;;;11.17;;
9974;SDS011;5028;50.974;4.968;2023-01-28T07:16:21;14.10;;;11.53;;
9974;SDS011;5028;50.974;4.968;2023-01-28T07:18:56;12.13;;;10.83;;
9974;SDS011;5028;50.974;4.968;2023-01-28T07:21:25;11.50;;;10.30;;
9974;SDS011;5028;50.974;4.968;2023-01-28T07:24:01;10.57;;;9.57;;
9974;SDS011;5028;50.974;4.968;2023-01-28T07:26:31;11.67;;;10.47;;
9974;SDS011;5028;50.974;4.968;2023-01-28T07:29:07;10.67;;;9.57;;
9974;SDS011;5028;50.974;4.968;2023-01-28T07:31:36;10.33;;;9.33;;
9974;SDS011;5028;50.974;4.968;2023-01-28T07:34:11;10.90;;;9.83;;
9974;SDS011;5028;50.974;4.968;2023-01-28T07:36:39;9.83;;;8.93;;
9974;SDS011;5028;50.974;4.968;2023-01-28T07:39:16;10.73;;;9.63;;
9974;SDS011;5028;50.974;4.968;2023-01-28T07:41:45;10.10;;;9.20;;
9974;SDS011;5028;50.974;4.968;2023-01-28T07:44:20;10.77;;;9.73;;
9974;SDS011;5028;50.974;4.968;2023-01-28T07:46:49;11.57;;;10.37;;
9974;SDS011;5028;50.974;4.968;2023-01-28T07:49:24;10.13;;;9.07;;
9974;SDS011;5028;50.974;4.968;2023-01-28T07:51:52;9.57;;;8.67;;
9974;SDS011;5028;50.974;4.968;2023-01-28T07:54:28;10.60;;;9.60;;
9974;SDS011;5028;50.974;4.968;2023-01-28T07:56:57;10.33;;;9.13;;
9974;SDS011;5028;50.974;4.968;2023-01-28T07:59:32;9.90;;;8.90;;
9974;SDS011;5028;50.974;4.968;2023-01-28T08:02:08;10.50;;;9.47;;
9974;SDS011;5028;50.974;4.968;2023-01-28T08:04:45;10.03;;;9.03;;
9974;SDS011;5028;50.974;4.968;2023-01-28T08:07:21;9.73;;;8.80;;
9974;SDS011;5028;50.974;4.968;2023-01-28T08:10:00;9.30;;;8.37;;
9974;SDS011;5028;50.974;4.968;2023-01-28T08:12:28;9.43;;;8.53;;
9974;SDS011;5028;50.974;4.968;2023-01-28T08:15:04;8.60;;;7.80;;
9974;SDS011;5028;50.974;4.968;2023-01-28T08:17:34;9.00;;;8.10;;
9974;SDS011;5028;50.974;4.968;2023-01-28T08:20:09;8.40;;;7.60;;
9974;SDS011;5028;50.974;4.968;2023-01-28T08:22:39;8.70;;;7.90;;
9974;SDS011;5028;50.974;4.968;2023-01-28T08:25:16;9.13;;;8.33;;
9974;SDS011;5028;50.974;4.968;2023-01-28T08:27:45;9.10;;;8.07;;
9974;SDS011;5028;50.974;4.968;2023-01-28T08:30:20;8.57;;;7.77;;
9974;SDS011;5028;50.974;4.968;2023-01-28T08:32:49;9.73;;;8.83;;
9974;SDS011;5028;50.974;4.968;2023-01-28T08:35:24;8.87;;;8.07;;
9974;SDS011;5028;50.974;4.968;2023-01-28T08:37:54;8.10;;;7.30;;
9974;SDS011;5028;50.974;4.968;2023-01-28T08:40:31;8.10;;;7.40;;
9974;SDS011;5028;50.974;4.968;2023-01-28T08:43:00;8.57;;;7.67;;
9974;SDS011;5028;50.974;4.968;2023-01-28T08:45:38;8.57;;;7.77;;
9974;SDS011;5028;50.974;4.968;2023-01-28T08:48:09;9.23;;;8.33;;
9974;SDS011;5028;50.974;4.968;2023-01-28T08:50:46;8.00;;;7.30;;
9974;SDS011;5028;50.974;4.968;2023-01-28T08:53:16;9.03;;;8.17;;
9974;SDS011;5028;50.974;4.968;2023-01-28T08:55:54;9.00;;;8.10;;
9974;SDS011;5028;50.974;4.968;2023-01-28T08:58:23;9.07;;;8.27;;
9974;SDS011;5028;50.974;4.968;2023-01-28T09:01:05;9.23;;;8.33;;
9974;SDS011;5028;50.974;4.968;2023-01-28T09:03:47;8.37;;;7.57;;
9974;SDS011;5028;50.974;4.968;2023-01-28T09:06:24;8.73;;;7.30;;
9974;SDS011;5028;50.974;4.968;2023-01-28T09:08:55;8.80;;;8.00;;
9974;SDS011;5028;50.974;4.968;2023-01-28T09:11:32;9.03;;;7.27;;
9974;SDS011;5028;50.974;4.968;2023-01-28T09:14:00;8.87;;;7.97;;
9974;SDS011;5028;50.974;4.968;2023-01-28T09:16:35;9.13;;;8.23;;
9974;SDS011;5028;50.974;4.968;2023-01-28T09:19:03;6.63;;;5.93;;
9974;SDS011;5028;50.974;4.968;2023-01-28T09:21:40;9.43;;;8.53;;
9974;SDS011;5028;50.974;4.968;2023-01-28T09:24:09;8.87;;;8.07;;
9974;SDS011;5028;50.974;4.968;2023-01-28T09:26:48;8.83;;;8.00;;
9974;SDS011;5028;50.974;4.968;2023-01-28T09:29:17;8.90;;;8.00;;
9974;SDS011;5028;50.974;4.968;2023-01-28T09:31:52;9.27;;;8.40;;
9974;SDS011;5028;50.974;4.968;2023-01-28T09:34:20;8.87;;;8.07;;
9974;SDS011;5028;50.974;4.968;2023-01-28T09:36:56;9.30;;;8.20;;
9974;SDS011;5028;50.974;4.968;2023-01-28T09:39:24;10.40;;;9.40;;
9974;SDS011;5028;50.974;4.968;2023-01-28T09:42:06;9.53;;;8.53;;
9974;SDS011;5028;50.974;4.968;2023-01-28T09:45:06;9.90;;;9.00;;
9974;SDS011;5028;50.974;4.968;2023-01-28T09:47:42;9.43;;;8.53;;
9974;SDS011;5028;50.974;4.968;2023-01-28T09:50:23;8.57;;;7.77;;
9974;SDS011;5028;50.974;4.968;2023-01-28T09:52:54;8.50;;;7.70;;
9974;SDS011;5028;50.974;4.968;2023-01-28T09:55:35;9.20;;;7.80;;
9974;SDS011;5028;50.974;4.968;2023-01-28T09:58:09;8.63;;;7.80;;
9974;SDS011;5028;50.974;4.968;2023-01-28T10:00:50;8.03;;;7.23;;
9974;SDS011;5028;50.974;4.968;2023-01-28T10:03:32;7.67;;;6.97;;
9974;SDS011;5028;50.974;4.968;2023-01-28T10:06:27;8.00;;;7.30;;
9974;SDS011;5028;50.974;4.968;2023-01-28T10:09:19;8.97;;;8.00;;
9974;SDS011;5028;50.974;4.968;2023-01-28T10:12:19;9.03;;;7.73;;
9974;SDS011;5028;50.974;4.968;2023-01-28T10:18:15;7.30;;;6.60;;
9974;SDS011;5028;50.974;4.968;2023-01-28T10:20:53;8.40;;;7.60;;
9974;SDS011;5028;50.974;4.968;2023-01-28T10:23:33;8.67;;;7.77;;
9974;SDS011;5028;50.974;4.968;2023-01-28T10:26:13;8.23;;;7.50;;
9974;SDS011;5028;50.974;4.968;2023-01-28T10:28:55;8.53;;;7.73;;
9974;SDS011;5028;50.974;4.968;2023-01-28T10:31:29;7.87;;;7.17;;
9974;SDS011;5028;50.974;4.968;2023-01-28T10:34:07;8.30;;;7.50;;
9974;SDS011;5028;50.974;4.968;2023-01-28T10:36:37;8.20;;;7.50;;
9974;SDS011;5028;50.974;4.968;2023-01-28T10:39:12;8.53;;;7.73;;
9974;SDS011;5028;50.974;4.968;2023-01-28T10:41:41;8.60;;;7.80;;
9974;SDS011;5028;50.974;4.968;2023-01-28T10:44:27;9.37;;;8.47;;
9974;SDS011;5028;50.974;4.968;2023-01-28T10:47:03;10.57;;;7.80;;
9974;SDS011;5028;50.974;4.968;2023-01-28T10:49:47;8.60;;;7.80;;
9974;SDS011;5028;50.974;4.968;2023-01-28T10:52:19;8.67;;;7.67;;
9974;SDS011;5028;50.974;4.968;2023-01-28T10:55:01;9.77;;;8.77;;
9974;SDS011;5028;50.974;4.968;2023-01-28T10:57:32;9.60;;;8.60;;
9974;SDS011;5028;50.974;4.968;2023-01-28T11:00:11;9.30;;;8.33;;
9974;SDS011;5028;50.974;4.968;2023-01-28T11:02:51;9.47;;;8.57;;
9974;SDS011;5028;50.974;4.968;2023-01-28T11:05:35;9.00;;;8.13;;
9974;SDS011;5028;50.974;4.968;2023-01-28T11:08:04;7.40;;;6.17;;
9974;SDS011;5028;50.974;4.968;2023-01-28T11:10:46;8.77;;;7.87;;
9974;SDS011;5028;50.974;4.968;2023-01-28T11:13:16;8.87;;;7.97;;
9974;SDS011;5028;50.974;4.968;2023-01-28T11:15:52;8.80;;;7.93;;
9974;SDS011;5028;50.974;4.968;2023-01-28T11:18:30;9.73;;;8.83;;
9974;SDS011;5028;50.974;4.968;2023-01-28T11:21:07;8.77;;;6.93;;
9974;SDS011;5028;50.974;4.968;2023-01-28T11:23:48;9.57;;;8.67;;
9974;SDS011;5028;50.974;4.968;2023-01-28T11:26:26;9.60;;;8.63;;
9974;SDS011;5028;50.974;4.968;2023-01-28T11:28:56;9.67;;;8.63;;
9974;SDS011;5028;50.974;4.968;2023-01-28T11:31:34;11.13;;;7.90;;
9974;SDS011;5028;50.974;4.968;2023-01-28T11:34:10;9.93;;;8.23;;
9974;SDS011;5028;50.974;4.968;2023-01-28T11:36:50;9.50;;;8.60;;
9974;SDS011;5028;50.974;4.968;2023-01-28T11:39:21;10.80;;;7.87;;
9974;SDS011;5028;50.974;4.968;2023-01-28T11:42:09;9.60;;;8.67;;
9974;SDS011;5028;50.974;4.968;2023-01-28T11:44:40;9.50;;;8.60;;
9974;SDS011;5028;50.974;4.968;2023-01-28T11:47:19;9.43;;;8.53;;
9974;SDS011;5028;50.974;4.968;2023-01-28T11:50:09;9.27;;;8.37;;
9974;SDS011;5028;50.974;4.968;2023-01-28T11:52:59;9.60;;;8.60;;
9974;SDS011;5028;50.974;4.968;2023-01-28T11:55:46;9.00;;;7.43;;
9974;SDS011;5028;50.974;4.968;2023-01-28T11:58:33;9.87;;;8.87;;
9974;SDS011;5028;50.974;4.968;2023-01-28T12:01:08;9.70;;;8.80;;
9974;SDS011;5028;50.974;4.968;2023-01-28T12:03:54;10.07;;;9.07;;
9974;SDS011;5028;50.974;4.968;2023-01-28T12:09:48;9.40;;;8.50;;
9974;SDS011;5028;50.974;4.968;2023-01-28T12:12:42;9.47;;;8.57;;
9974;SDS011;5028;50.974;4.968;2023-01-28T12:15:53;9.33;;;8.43;;
9974;SDS011;5028;50.974;4.968;2023-01-28T12:18:49;10.67;;;9.23;;
9974;SDS011;5028;50.974;4.968;2023-01-28T12:21:36;10.07;;;9.07;;
9974;SDS011;5028;50.974;4.968;2023-01-28T12:24:25;9.30;;;8.40;;
9974;SDS011;5028;50.974;4.968;2023-01-28T12:27:04;9.17;;;8.37;;
9974;SDS011;5028;50.974;4.968;2023-01-28T12:30:01;9.17;;;8.27;;
9974;SDS011;5028;50.974;4.968;2023-01-28T12:32:47;9.43;;;8.43;;
9974;SDS011;5028;50.974;4.968;2023-01-28T12:35:34;10.00;;;9.00;;
9974;SDS011;5028;50.974;4.968;2023-01-28T12:38:18;9.73;;;8.73;;
9974;SDS011;5028;50.974;4.968;2023-01-28T12:41:00;10.30;;;9.20;;
9974;SDS011;5028;50.974;4.968;2023-01-28T12:43:37;10.53;;;9.53;;
9974;SDS011;5028;50.974;4.968;2023-01-28T12:46:35;10.80;;;9.80;;
9974;SDS011;5028;50.974;4.968;2023-01-28T12:49:10;12.20;;;11.00;;
9974;SDS011;5028;50.974;4.968;2023-01-28T12:51:53;17.13;;;15.43;;
9974;SDS011;5028;50.974;4.968;2023-01-28T12:54:27;18.40;;;16.40;;
9974;SDS011;5028;50.974;4.968;2023-01-28T12:57:10;16.77;;;15.00;;
9974;SDS011;5028;50.974;4.968;2023-01-28T12:59:48;16.13;;;14.43;;
9974;SDS011;5028;50.974;4.968;2023-01-28T13:02:28;17.57;;;15.03;;
9974;SDS011;5028;50.974;4.968;2023-01-28T13:05:03;16.20;;;14.30;;
9974;SDS011;5028;50.974;4.968;2023-01-28T13:07:50;15.93;;;14.27;;
9974;SDS011;5028;50.974;4.968;2023-01-28T13:10:37;16.57;;;14.87;;
9974;SDS011;5028;50.974;4.968;2023-01-28T13:13:16;14.93;;;13.43;;
9974;SDS011;5028;50.974;4.968;2023-01-28T13:15:50;15.97;;;14.10;;
9974;SDS011;5028;50.974;4.968;2023-01-28T13:18:41;23.40;;;13.00;;
9974;SDS011;5028;50.974;4.968;2023-01-28T13:21:12;15.17;;;12.73;;
9974;SDS011;5028;50.974;4.968;2023-01-28T13:24:30;15.73;;;14.03;;
9974;SDS011;5028;50.974;4.968;2023-01-28T13:27:08;17.23;;;15.43;;
9974;SDS011;5028;50.974;4.968;2023-01-28T13:29:47;15.77;;;14.17;;
9974;SDS011;5028;50.974;4.968;2023-01-28T13:32:40;15.97;;;14.47;;
9974;SDS011;5028;50.974;4.968;2023-01-28T13:35:23;15.83;;;14.23;;
9974;SDS011;5028;50.974;4.968;2023-01-28T13:37:58;14.50;;;13.10;;
9974;SDS011;5028;50.974;4.968;2023-01-28T13:40:40;14.63;;;13.10;;
9974;SDS011;5028;50.974;4.968;2023-01-28T13:43:26;15.27;;;13.67;;
9974;SDS011;5028;50.974;4.968;2023-01-28T13:46:11;14.50;;;13.03;;
9974;SDS011;5028;50.974;4.968;2023-01-28T13:48:54;16.00;;;13.03;;
9974;SDS011;5028;50.974;4.968;2023-01-28T13:51:32;14.20;;;12.80;;
9974;SDS011;5028;50.974;4.968;2023-01-28T13:54:03;14.10;;;12.70;;
9974;SDS011;5028;50.974;4.968;2023-01-28T13:56:41;14.47;;;13.00;;
9974;SDS011;5028;50.974;4.968;2023-01-28T13:59:32;15.70;;;14.13;;
9974;SDS011;5028;50.974;4.968;2023-01-28T14:02:31;14.20;;;12.80;;
9974;SDS011;5028;50.974;4.968;2023-01-28T14:08:35;13.83;;;12.43;;
9974;SDS011;5028;50.974;4.968;2023-01-28T14:11:34;14.13;;;12.67;;
9974;SDS011;5028;50.974;4.968;2023-01-28T14:17:41;14.17;;;12.77;;
9974;SDS011;5028;50.974;4.968;2023-01-28T14:20:19;14.80;;;13.20;;
9974;SDS011;5028;50.974;4.968;2023-01-28T14:22:55;13.73;;;12.33;;
9974;SDS011;5028;50.974;4.968;2023-01-28T14:25:34;14.43;;;13.03;;
9974;SDS011;5028;50.974;4.968;2023-01-28T14:28:14;16.03;;;13.43;;
9974;SDS011;5028;50.974;4.968;2023-01-28T14:30:55;15.27;;;13.63;;
9974;SDS011;5028;50.974;4.968;2023-01-28T14:33:36;14.40;;;12.97;;
9974;SDS011;5028;50.974;4.968;2023-01-28T14:36:08;14.73;;;13.23;;
9974;SDS011;5028;50.974;4.968;2023-01-28T14:38:45;15.30;;;13.70;;
9974;SDS011;5028;50.974;4.968;2023-01-28T14:41:19;15.80;;;14.20;;
9974;SDS011;5028;50.974;4.968;2023-01-28T14:43:56;14.70;;;13.23;;
9974;SDS011;5028;50.974;4.968;2023-01-28T14:46:28;14.87;;;13.47;;
9974;SDS011;5028;50.974;4.968;2023-01-28T14:49:14;15.87;;;14.17;;
9974;SDS011;5028;50.974;4.968;2023-01-28T14:51:59;15.67;;;14.13;;
9974;SDS011;5028;50.974;4.968;2023-01-28T14:54:48;17.80;;;15.60;;
9974;SDS011;5028;50.974;4.968;2023-01-28T14:57:36;17.23;;;15.43;;
9974;SDS011;5028;50.974;4.968;2023-01-28T15:00:18;17.67;;;14.93;;
9974;SDS011;5028;50.974;4.968;2023-01-28T15:02:49;17.17;;;15.37;;
9974;SDS011;5028;50.974;4.968;2023-01-28T15:05:25;17.63;;;15.83;;
9974;SDS011;5028;50.974;4.968;2023-01-28T15:07:54;17.40;;;15.70;;
9974;SDS011;5028;50.974;4.968;2023-01-28T15:10:37;17.23;;;15.43;;
9974;SDS011;5028;50.974;4.968;2023-01-28T15:13:22;17.60;;;15.70;;
9974;SDS011;5028;50.974;4.968;2023-01-28T15:15:53;17.67;;;15.87;;
9974;SDS011;5028;50.974;4.968;2023-01-28T15:18:33;17.23;;;15.53;;
9974;SDS011;5028;50.974;4.968;2023-01-28T15:21:10;20.93;;;17.10;;
9974;SDS011;5028;50.974;4.968;2023-01-28T15:23:40;18.43;;;16.43;;
9974;SDS011;5028;50.974;4.968;2023-01-28T15:26:11;17.90;;;16.00;;
9974;SDS011;5028;50.974;4.968;2023-01-28T15:28:50;17.83;;;15.97;;
9974;SDS011;5028;50.974;4.968;2023-01-28T15:31:20;18.03;;;16.03;;
9974;SDS011;5028;50.974;4.968;2023-01-28T15:33:57;18.67;;;16.67;;
9974;SDS011;5028;50.974;4.968;2023-01-28T15:36:27;17.83;;;15.93;;
9974;SDS011;5028;50.974;4.968;2023-01-28T15:39:03;18.87;;;16.07;;
9974;SDS011;5028;50.974;4.968;2023-01-28T15:41:41;17.37;;;15.67;;
9974;SDS011;5028;50.974;4.968;2023-01-28T15:44:21;21.40;;;15.90;;
9974;SDS011;5028;50.974;4.968;2023-01-28T15:46:56;17.33;;;15.53;;
9974;SDS011;5028;50.974;4.968;2023-01-28T15:49:33;17.63;;;15.23;;
9974;SDS011;5028;50.974;4.968;2023-01-28T15:52:04;16.83;;;15.13;;
9974;SDS011;5028;50.974;4.968;2023-01-28T15:54:39;16.37;;;14.67;;
9974;SDS011;5028;50.974;4.968;2023-01-28T15:57:16;16.33;;;14.67;;
9974;SDS011;5028;50.974;4.968;2023-01-28T16:00:01;16.50;;;14.73;;
9974;SDS011;5028;50.974;4.968;2023-01-28T16:02:41;17.57;;;15.30;;
9974;SDS011;5028;50.974;4.968;2023-01-28T16:05:23;18.77;;;15.43;;
9974;SDS011;5028;50.974;4.968;2023-01-28T16:07:53;18.30;;;16.40;;
9974;SDS011;5028;50.974;4.968;2023-01-28T16:10:30;18.40;;;15.87;;
9974;SDS011;5028;50.974;4.968;2023-01-28T16:13:11;19.97;;;16.30;;
9974;SDS011;5028;50.974;4.968;2023-01-28T16:15:53;18.03;;;16.10;;